sensor_id;sensor_type;location;lat;lon;timestamp;temperature;humidity
32173;DHT22;18679;45.190;5.722;2023-04-16T00:01:38;12.70;61.90
32173;DHT22;18679;45.190;5.722;2023-04-16T00:04:39;12.70;61.80
32173;DHT22;18679;45.190;5.722;2023-04-16T00:07:40;12.70;61.80
32173;DHT22;18679;45.190;5.722;2023-04-16T00:10:41;12.70;61.80
32173;DHT22;18679;45.190;5.722;2023-04-16T00:13:42;12.70;61.90
32173;DHT22;18679;45.190;5.722;2023-04-16T00:16:43;12.70;61.90
32173;DHT22;18679;45.190;5.722;2023-04-16T00:19:44;12.70;62.00
32173;DHT22;18679;45.190;5.722;2023-04-16T00:22:45;12.70;62.20
32173;DHT22;18679;45.190;5.722;2023-04-16T00:25:46;12.60;62.30
32173;DHT22;18679;45.190;5.722;2023-04-16T00:28:47;12.60;62.60
32173;DHT22;18679;45.190;5.722;2023-04-16T00:31:51;12.50;62.80
32173;DHT22;18679;45.190;5.722;2023-04-16T00:34:52;12.50;63.00
32173;DHT22;18679;45.190;5.722;2023-04-16T00:37:53;12.50;63.20
32173;DHT22;18679;45.190;5.722;2023-04-16T00:40:53;12.50;63.30
32173;DHT22;18679;45.190;5.722;2023-04-16T00:43:54;12.50;63.50
32173;DHT22;18679;45.190;5.722;2023-04-16T00:46:56;12.50;63.70
32173;DHT22;18679;45.190;5.722;2023-04-16T00:49:57;12.50;63.70
32173;DHT22;18679;45.190;5.722;2023-04-16T00:52:58;12.50;63.70
32173;DHT22;18679;45.190;5.722;2023-04-16T00:56:02;12.40;63.60
32173;DHT22;18679;45.190;5.722;2023-04-16T00:59:04;12.40;63.60
32173;DHT22;18679;45.190;5.722;2023-04-16T01:02:05;12.40;63.50
32173;DHT22;18679;45.190;5.722;2023-04-16T01:05:07;12.50;63.50
32173;DHT22;18679;45.190;5.722;2023-04-16T01:08:21;12.50;63.50
32173;DHT22;18679;45.190;5.722;2023-04-16T01:11:22;12.50;63.40
32173;DHT22;18679;45.190;5.722;2023-04-16T01:14:23;12.50;63.30
32173;DHT22;18679;45.190;5.722;2023-04-16T01:17:24;12.50;63.20
32173;DHT22;18679;45.190;5.722;2023-04-16T01:20:25;12.60;63.00
32173;DHT22;18679;45.190;5.722;2023-04-16T01:23:26;12.60;62.60
32173;DHT22;18679;45.190;5.722;2023-04-16T01:26:27;12.70;62.10
32173;DHT22;18679;45.190;5.722;2023-04-16T01:29:27;12.80;61.70
32173;DHT22;18679;45.190;5.722;2023-04-16T01:32:31;12.90;61.50
32173;DHT22;18679;45.190;5.722;2023-04-16T01:35:32;13.00;61.30
32173;DHT22;18679;45.190;5.722;2023-04-16T01:38:33;13.10;61.10
32173;DHT22;18679;45.190;5.722;2023-04-16T01:41:34;13.10;61.00
32173;DHT22;18679;45.190;5.722;2023-04-16T01:44:36;13.10;61.10
32173;DHT22;18679;45.190;5.722;2023-04-16T01:47:36;13.10;61.10
32173;DHT22;18679;45.190;5.722;2023-04-16T01:50:37;13.10;61.20
32173;DHT22;18679;45.190;5.722;2023-04-16T01:53:38;13.10;61.40
32173;DHT22;18679;45.190;5.722;2023-04-16T01:56:39;13.00;61.30
32173;DHT22;18679;45.190;5.722;2023-04-16T01:59:40;13.00;61.60
32173;DHT22;18679;45.190;5.722;2023-04-16T02:02:41;13.00;61.80
32173;DHT22;18679;45.190;5.722;2023-04-16T02:05:42;12.90;61.90
32173;DHT22;18679;45.190;5.722;2023-04-16T02:08:43;12.90;61.90
32173;DHT22;18679;45.190;5.722;2023-04-16T02:11:44;12.90;62.00
32173;DHT22;18679;45.190;5.722;2023-04-16T02:14:45;12.90;62.20
32173;DHT22;18679;45.190;5.722;2023-04-16T02:17:48;12.90;62.20
32173;DHT22;18679;45.190;5.722;2023-04-16T02:20:53;12.90;62.20
32173;DHT22;18679;45.190;5.722;2023-04-16T02:23:57;12.90;62.30
32173;DHT22;18679;45.190;5.722;2023-04-16T02:27:01;12.80;62.30
32173;DHT22;18679;45.190;5.722;2023-04-16T02:30:02;12.80;62.40
32173;DHT22;18679;45.190;5.722;2023-04-16T02:33:08;12.80;62.50
32173;DHT22;18679;45.190;5.722;2023-04-16T02:36:11;12.70;62.50
32173;DHT22;18679;45.190;5.722;2023-04-16T02:39:12;12.70;62.60
32173;DHT22;18679;45.190;5.722;2023-04-16T02:42:13;12.70;62.70
32173;DHT22;18679;45.190;5.722;2023-04-16T02:45:14;12.70;62.70
32173;DHT22;18679;45.190;5.722;2023-04-16T02:48:15;12.80;62.60
32173;DHT22;18679;45.190;5.722;2023-04-16T02:51:16;12.80;62.70
32173;DHT22;18679;45.190;5.722;2023-04-16T02:54:17;12.70;62.60
32173;DHT22;18679;45.190;5.722;2023-04-16T02:57:17;12.70;62.60
32173;DHT22;18679;45.190;5.722;2023-04-16T03:00:18;12.70;62.80
32173;DHT22;18679;45.190;5.722;2023-04-16T03:03:20;12.60;62.60
32173;DHT22;18679;45.190;5.722;2023-04-16T03:06:21;12.70;62.80
32173;DHT22;18679;45.190;5.722;2023-04-16T03:09:22;12.60;62.90
32173;DHT22;18679;45.190;5.722;2023-04-16T03:12:23;12.60;62.90
32173;DHT22;18679;45.190;5.722;2023-04-16T03:15:24;12.60;63.00
32173;DHT22;18679;45.190;5.722;2023-04-16T03:18:25;12.60;63.00
32173;DHT22;18679;45.190;5.722;2023-04-16T03:21:26;12.70;63.10
32173;DHT22;18679;45.190;5.722;2023-04-16T03:24:27;12.70;63.00
32173;DHT22;18679;45.190;5.722;2023-04-16T03:27:29;12.60;62.90
32173;DHT22;18679;45.190;5.722;2023-04-16T03:30:30;12.70;63.00
32173;DHT22;18679;45.190;5.722;2023-04-16T03:33:31;12.70;63.10
32173;DHT22;18679;45.190;5.722;2023-04-16T03:36:31;12.70;63.20
32173;DHT22;18679;45.190;5.722;2023-04-16T03:39:32;12.70;63.30
32173;DHT22;18679;45.190;5.722;2023-04-16T03:42:34;12.70;63.20
32173;DHT22;18679;45.190;5.722;2023-04-16T03:45:36;12.80;63.20
32173;DHT22;18679;45.190;5.722;2023-04-16T03:48:43;12.80;63.20
32173;DHT22;18679;45.190;5.722;2023-04-16T03:51:46;12.80;63.20
32173;DHT22;18679;45.190;5.722;2023-04-16T03:54:47;12.80;63.20
32173;DHT22;18679;45.190;5.722;2023-04-16T03:57:59;12.90;63.10
32173;DHT22;18679;45.190;5.722;2023-04-16T04:01:03;12.90;63.00
32173;DHT22;18679;45.190;5.722;2023-04-16T04:04:04;12.80;62.80
32173;DHT22;18679;45.190;5.722;2023-04-16T04:07:05;12.90;63.00
32173;DHT22;18679;45.190;5.722;2023-04-16T04:10:06;12.90;63.10
32173;DHT22;18679;45.190;5.722;2023-04-16T04:13:11;12.80;63.30
32173;DHT22;18679;45.190;5.722;2023-04-16T04:16:12;12.80;63.30
32173;DHT22;18679;45.190;5.722;2023-04-16T04:19:13;12.80;63.30
32173;DHT22;18679;45.190;5.722;2023-04-16T04:22:15;12.80;63.40
32173;DHT22;18679;45.190;5.722;2023-04-16T04:25:16;12.80;64.30
32173;DHT22;18679;45.190;5.722;2023-04-16T04:28:17;12.80;63.50
32173;DHT22;18679;45.190;5.722;2023-04-16T04:31:18;12.80;63.50
32173;DHT22;18679;45.190;5.722;2023-04-16T04:34:19;12.70;63.50
32173;DHT22;18679;45.190;5.722;2023-04-16T04:37:21;12.70;63.70
32173;DHT22;18679;45.190;5.722;2023-04-16T04:40:22;12.70;63.70
32173;DHT22;18679;45.190;5.722;2023-04-16T04:43:23;12.70;63.70
32173;DHT22;18679;45.190;5.722;2023-04-16T04:46:24;12.70;63.70
32173;DHT22;18679;45.190;5.722;2023-04-16T04:49:25;12.70;63.60
32173;DHT22;18679;45.190;5.722;2023-04-16T04:52:26;12.70;63.50
32173;DHT22;18679;45.190;5.722;2023-04-16T04:55:27;12.70;63.50
32173;DHT22;18679;45.190;5.722;2023-04-16T04:58:28;12.70;63.50
32173;DHT22;18679;45.190;5.722;2023-04-16T05:01:29;12.70;63.50
32173;DHT22;18679;45.190;5.722;2023-04-16T05:04:30;12.70;63.50
32173;DHT22;18679;45.190;5.722;2023-04-16T05:07:31;12.70;63.40
32173;DHT22;18679;45.190;5.722;2023-04-16T05:10:31;12.70;63.40
32173;DHT22;18679;45.190;5.722;2023-04-16T05:13:32;12.70;63.40
32173;DHT22;18679;45.190;5.722;2023-04-16T05:16:36;12.70;63.30
32173;DHT22;18679;45.190;5.722;2023-04-16T05:19:37;12.70;63.20
32173;DHT22;18679;45.190;5.722;2023-04-16T05:22:38;12.70;63.20
32173;DHT22;18679;45.190;5.722;2023-04-16T05:25:39;12.70;63.20
32173;DHT22;18679;45.190;5.722;2023-04-16T05:28:40;12.70;63.10
32173;DHT22;18679;45.190;5.722;2023-04-16T05:31:41;12.80;63.10
32173;DHT22;18679;45.190;5.722;2023-04-16T05:34:42;12.80;63.00
32173;DHT22;18679;45.190;5.722;2023-04-16T05:37:42;12.80;63.70
32173;DHT22;18679;45.190;5.722;2023-04-16T05:40:43;12.90;62.80
32173;DHT22;18679;45.190;5.722;2023-04-16T05:43:44;12.90;62.80
32173;DHT22;18679;45.190;5.722;2023-04-16T05:46:45;13.00;62.60
32173;DHT22;18679;45.190;5.722;2023-04-16T05:49:46;13.10;62.50
32173;DHT22;18679;45.190;5.722;2023-04-16T05:52:46;13.10;62.30
32173;DHT22;18679;45.190;5.722;2023-04-16T05:55:47;13.10;62.20
32173;DHT22;18679;45.190;5.722;2023-04-16T05:58:48;13.20;62.20
32173;DHT22;18679;45.190;5.722;2023-04-16T06:01:49;13.20;62.00
32173;DHT22;18679;45.190;5.722;2023-04-16T06:04:50;13.30;61.90
32173;DHT22;18679;45.190;5.722;2023-04-16T06:07:51;13.30;61.70
32173;DHT22;18679;45.190;5.722;2023-04-16T06:10:52;13.40;61.70
32173;DHT22;18679;45.190;5.722;2023-04-16T06:13:53;13.40;61.50
32173;DHT22;18679;45.190;5.722;2023-04-16T06:16:54;13.50;62.20
32173;DHT22;18679;45.190;5.722;2023-04-16T06:19:54;13.50;61.20
32173;DHT22;18679;45.190;5.722;2023-04-16T06:22:57;13.60;61.10
32173;DHT22;18679;45.190;5.722;2023-04-16T06:25:57;13.60;60.80
32173;DHT22;18679;45.190;5.722;2023-04-16T06:28:58;13.60;60.60
32173;DHT22;18679;45.190;5.722;2023-04-16T06:31:59;13.60;60.60
32173;DHT22;18679;45.190;5.722;2023-04-16T06:35:00;13.70;60.60
32173;DHT22;18679;45.190;5.722;2023-04-16T06:38:01;13.80;60.40
32173;DHT22;18679;45.190;5.722;2023-04-16T06:41:02;13.90;60.20
32173;DHT22;18679;45.190;5.722;2023-04-16T06:44:03;13.80;59.80
32173;DHT22;18679;45.190;5.722;2023-04-16T06:47:04;13.80;59.80
32173;DHT22;18679;45.190;5.722;2023-04-16T06:50:06;13.90;59.90
32173;DHT22;18679;45.190;5.722;2023-04-16T06:53:07;14.00;59.80
32173;DHT22;18679;45.190;5.722;2023-04-16T06:56:07;14.00;59.60
32173;DHT22;18679;45.190;5.722;2023-04-16T06:59:08;14.10;59.50
32173;DHT22;18679;45.190;5.722;2023-04-16T07:02:09;14.10;59.40
32173;DHT22;18679;45.190;5.722;2023-04-16T07:05:10;14.10;59.30
32173;DHT22;18679;45.190;5.722;2023-04-16T07:08:11;14.10;59.20
32173;DHT22;18679;45.190;5.722;2023-04-16T07:11:12;14.10;58.90
32173;DHT22;18679;45.190;5.722;2023-04-16T07:14:13;14.20;59.00
32173;DHT22;18679;45.190;5.722;2023-04-16T07:17:13;14.20;58.90
32173;DHT22;18679;45.190;5.722;2023-04-16T07:20:14;14.30;59.20
32173;DHT22;18679;45.190;5.722;2023-04-16T07:23:15;14.40;59.00
32173;DHT22;18679;45.190;5.722;2023-04-16T07:26:16;14.50;58.90
32173;DHT22;18679;45.190;5.722;2023-04-16T07:29:17;14.50;58.70
32173;DHT22;18679;45.190;5.722;2023-04-16T07:32:20;14.60;58.50
32173;DHT22;18679;45.190;5.722;2023-04-16T07:35:22;14.70;58.40
32173;DHT22;18679;45.190;5.722;2023-04-16T07:38:23;14.60;58.00
32173;DHT22;18679;45.190;5.722;2023-04-16T07:41:24;14.60;57.70
32173;DHT22;18679;45.190;5.722;2023-04-16T07:44:24;14.50;57.70
32173;DHT22;18679;45.190;5.722;2023-04-16T07:47:26;14.50;57.70
32173;DHT22;18679;45.190;5.722;2023-04-16T07:50:27;14.50;57.70
32173;DHT22;18679;45.190;5.722;2023-04-16T07:53:27;14.50;57.60
32173;DHT22;18679;45.190;5.722;2023-04-16T07:56:28;14.50;57.50
32173;DHT22;18679;45.190;5.722;2023-04-16T07:59:29;14.50;57.50
32173;DHT22;18679;45.190;5.722;2023-04-16T08:02:30;14.60;57.50
32173;DHT22;18679;45.190;5.722;2023-04-16T08:05:31;14.70;57.30
32173;DHT22;18679;45.190;5.722;2023-04-16T08:08:32;14.70;57.20
32173;DHT22;18679;45.190;5.722;2023-04-16T08:11:32;14.80;56.90
32173;DHT22;18679;45.190;5.722;2023-04-16T08:14:33;14.80;56.50
32173;DHT22;18679;45.190;5.722;2023-04-16T08:17:34;14.90;56.20
32173;DHT22;18679;45.190;5.722;2023-04-16T08:20:37;14.90;56.10
32173;DHT22;18679;45.190;5.722;2023-04-16T08:23:38;14.90;55.80
32173;DHT22;18679;45.190;5.722;2023-04-16T08:26:39;14.90;56.00
32173;DHT22;18679;45.190;5.722;2023-04-16T08:29:40;14.90;55.50
32173;DHT22;18679;45.190;5.722;2023-04-16T08:32:42;14.90;55.20
32173;DHT22;18679;45.190;5.722;2023-04-16T08:35:43;14.90;55.20
32173;DHT22;18679;45.190;5.722;2023-04-16T08:38:44;14.90;55.20
32173;DHT22;18679;45.190;5.722;2023-04-16T08:41:45;15.00;55.10
32173;DHT22;18679;45.190;5.722;2023-04-16T08:44:47;15.20;54.90
32173;DHT22;18679;45.190;5.722;2023-04-16T08:47:50;15.30;54.80
32173;DHT22;18679;45.190;5.722;2023-04-16T08:50:52;15.50;54.50
32173;DHT22;18679;45.190;5.722;2023-04-16T08:54:03;15.60;54.00
32173;DHT22;18679;45.190;5.722;2023-04-16T08:57:06;15.70;53.80
32173;DHT22;18679;45.190;5.722;2023-04-16T09:00:10;15.70;53.40
32173;DHT22;18679;45.190;5.722;2023-04-16T09:03:11;15.90;53.40
32173;DHT22;18679;45.190;5.722;2023-04-16T09:06:13;16.00;53.00
32173;DHT22;18679;45.190;5.722;2023-04-16T09:09:16;16.00;52.70
32173;DHT22;18679;45.190;5.722;2023-04-16T09:12:18;16.00;52.40
32173;DHT22;18679;45.190;5.722;2023-04-16T09:15:19;16.00;52.80
32173;DHT22;18679;45.190;5.722;2023-04-16T09:18:20;15.80;52.30
32173;DHT22;18679;45.190;5.722;2023-04-16T09:21:32;15.80;52.30
32173;DHT22;18679;45.190;5.722;2023-04-16T09:24:35;15.80;52.20
32173;DHT22;18679;45.190;5.722;2023-04-16T09:27:38;15.80;52.20
32173;DHT22;18679;45.190;5.722;2023-04-16T09:30:39;15.70;52.00
32173;DHT22;18679;45.190;5.722;2023-04-16T09:33:41;15.80;52.10
32173;DHT22;18679;45.190;5.722;2023-04-16T09:36:42;15.70;51.90
32173;DHT22;18679;45.190;5.722;2023-04-16T09:39:55;15.70;52.00
32173;DHT22;18679;45.190;5.722;2023-04-16T09:42:58;15.80;51.70
32173;DHT22;18679;45.190;5.722;2023-04-16T09:46:03;15.70;51.60
32173;DHT22;18679;45.190;5.722;2023-04-16T09:49:14;15.70;52.20
32173;DHT22;18679;45.190;5.722;2023-04-16T09:52:17;15.80;51.80
32173;DHT22;18679;45.190;5.722;2023-04-16T09:55:22;15.90;51.50
32173;DHT22;18679;45.190;5.722;2023-04-16T09:58:27;15.90;51.20
32173;DHT22;18679;45.190;5.722;2023-04-16T10:01:29;16.00;51.00
32173;DHT22;18679;45.190;5.722;2023-04-16T10:04:44;16.10;50.60
32173;DHT22;18679;45.190;5.722;2023-04-16T10:07:45;16.10;50.50
32173;DHT22;18679;45.190;5.722;2023-04-16T10:10:48;16.00;50.50
32173;DHT22;18679;45.190;5.722;2023-04-16T10:13:49;16.00;50.20
32173;DHT22;18679;45.190;5.722;2023-04-16T10:16:50;15.90;50.20
32173;DHT22;18679;45.190;5.722;2023-04-16T10:19:53;15.90;50.10
32173;DHT22;18679;45.190;5.722;2023-04-16T10:22:55;16.00;49.80
32173;DHT22;18679;45.190;5.722;2023-04-16T10:25:58;16.00;49.60
32173;DHT22;18679;45.190;5.722;2023-04-16T10:28:59;16.00;49.20
32173;DHT22;18679;45.190;5.722;2023-04-16T10:32:01;15.90;49.20
32173;DHT22;18679;45.190;5.722;2023-04-16T10:35:03;15.80;49.00
32173;DHT22;18679;45.190;5.722;2023-04-16T10:38:26;15.70;49.00
32173;DHT22;18679;45.190;5.722;2023-04-16T10:41:28;15.60;48.90
32173;DHT22;18679;45.190;5.722;2023-04-16T10:44:31;15.50;49.00
32173;DHT22;18679;45.190;5.722;2023-04-16T10:47:38;15.60;49.10
32173;DHT22;18679;45.190;5.722;2023-04-16T10:50:39;15.60;48.90
32173;DHT22;18679;45.190;5.722;2023-04-16T10:53:40;15.60;48.80
32173;DHT22;18679;45.190;5.722;2023-04-16T10:56:43;15.60;48.90
32173;DHT22;18679;45.190;5.722;2023-04-16T10:59:45;15.60;48.90
32173;DHT22;18679;45.190;5.722;2023-04-16T11:02:52;15.60;48.80
32173;DHT22;18679;45.190;5.722;2023-04-16T11:06:12;15.70;48.70
32173;DHT22;18679;45.190;5.722;2023-04-16T11:12:48;15.90;48.20
32173;DHT22;18679;45.190;5.722;2023-04-16T11:15:50;16.00;47.70
32173;DHT22;18679;45.190;5.722;2023-04-16T11:18:51;16.10;47.50
32173;DHT22;18679;45.190;5.722;2023-04-16T11:21:52;16.20;47.50
32173;DHT22;18679;45.190;5.722;2023-04-16T11:24:54;16.30;47.40
32173;DHT22;18679;45.190;5.722;2023-04-16T11:27:56;16.40;47.30
32173;DHT22;18679;45.190;5.722;2023-04-16T11:31:10;16.30;47.10
32173;DHT22;18679;45.190;5.722;2023-04-16T11:34:12;16.40;47.20
32173;DHT22;18679;45.190;5.722;2023-04-16T11:37:12;16.30;47.20
32173;DHT22;18679;45.190;5.722;2023-04-16T11:40:14;16.30;47.10
32173;DHT22;18679;45.190;5.722;2023-04-16T11:43:15;16.40;47.00
32173;DHT22;18679;45.190;5.722;2023-04-16T11:46:16;16.50;46.70
32173;DHT22;18679;45.190;5.722;2023-04-16T11:49:26;16.70;46.30
32173;DHT22;18679;45.190;5.722;2023-04-16T11:52:32;16.70;46.00
32173;DHT22;18679;45.190;5.722;2023-04-16T11:55:42;16.80;45.70
32173;DHT22;18679;45.190;5.722;2023-04-16T11:58:44;16.90;45.60
32173;DHT22;18679;45.190;5.722;2023-04-16T12:01:52;16.90;45.30
32173;DHT22;18679;45.190;5.722;2023-04-16T12:04:57;16.90;45.50
32173;DHT22;18679;45.190;5.722;2023-04-16T12:07:59;16.80;45.60
32173;DHT22;18679;45.190;5.722;2023-04-16T12:11:00;16.70;45.70
32173;DHT22;18679;45.190;5.722;2023-04-16T12:14:11;16.60;45.90
32173;DHT22;18679;45.190;5.722;2023-04-16T12:17:17;16.50;45.90
32173;DHT22;18679;45.190;5.722;2023-04-16T12:20:18;16.40;46.10
32173;DHT22;18679;45.190;5.722;2023-04-16T12:23:26;16.30;46.20
32173;DHT22;18679;45.190;5.722;2023-04-16T12:26:36;16.20;46.40
32173;DHT22;18679;45.190;5.722;2023-04-16T12:29:37;16.10;46.70
32173;DHT22;18679;45.190;5.722;2023-04-16T12:32:39;16.00;46.80
32173;DHT22;18679;45.190;5.722;2023-04-16T12:35:40;16.00;46.70
32173;DHT22;18679;45.190;5.722;2023-04-16T12:38:43;15.90;46.90
32173;DHT22;18679;45.190;5.722;2023-04-16T12:41:43;15.90;47.30
32173;DHT22;18679;45.190;5.722;2023-04-16T12:44:44;15.90;47.90
32173;DHT22;18679;45.190;5.722;2023-04-16T12:47:46;15.90;47.20
32173;DHT22;18679;45.190;5.722;2023-04-16T12:50:47;16.00;47.10
32173;DHT22;18679;45.190;5.722;2023-04-16T12:53:48;15.90;47.00
32173;DHT22;18679;45.190;5.722;2023-04-16T12:56:49;16.00;46.90
32173;DHT22;18679;45.190;5.722;2023-04-16T12:59:50;16.00;46.90
32173;DHT22;18679;45.190;5.722;2023-04-16T13:02:51;16.10;46.90
32173;DHT22;18679;45.190;5.722;2023-04-16T13:05:52;16.20;46.80
32173;DHT22;18679;45.190;5.722;2023-04-16T13:08:53;16.60;46.20
32173;DHT22;18679;45.190;5.722;2023-04-16T13:11:54;16.70;45.80
32173;DHT22;18679;45.190;5.722;2023-04-16T13:14:55;16.60;45.90
32173;DHT22;18679;45.190;5.722;2023-04-16T13:17:55;16.70;46.00
32173;DHT22;18679;45.190;5.722;2023-04-16T13:20:57;16.70;46.00
32173;DHT22;18679;45.190;5.722;2023-04-16T13:23:58;16.90;45.80
32173;DHT22;18679;45.190;5.722;2023-04-16T13:26:59;16.90;45.50
32173;DHT22;18679;45.190;5.722;2023-04-16T13:30:00;16.70;45.50
32173;DHT22;18679;45.190;5.722;2023-04-16T13:33:01;16.70;45.70
32173;DHT22;18679;45.190;5.722;2023-04-16T13:36:02;16.70;45.90
32173;DHT22;18679;45.190;5.722;2023-04-16T13:39:03;16.60;46.20
32173;DHT22;18679;45.190;5.722;2023-04-16T13:42:10;16.50;46.40
32173;DHT22;18679;45.190;5.722;2023-04-16T13:45:10;16.50;46.60
32173;DHT22;18679;45.190;5.722;2023-04-16T13:48:11;16.40;46.80
32173;DHT22;18679;45.190;5.722;2023-04-16T13:51:12;16.40;46.90
32173;DHT22;18679;45.190;5.722;2023-04-16T13:54:14;16.40;47.10
32173;DHT22;18679;45.190;5.722;2023-04-16T13:57:15;16.30;47.50
32173;DHT22;18679;45.190;5.722;2023-04-16T14:00:17;16.40;47.30
32173;DHT22;18679;45.190;5.722;2023-04-16T14:03:19;16.40;47.30
32173;DHT22;18679;45.190;5.722;2023-04-16T14:06:20;16.50;47.30
32173;DHT22;18679;45.190;5.722;2023-04-16T14:09:21;16.50;47.20
32173;DHT22;18679;45.190;5.722;2023-04-16T14:12:22;16.50;47.30
32173;DHT22;18679;45.190;5.722;2023-04-16T14:15:23;16.50;47.30
32173;DHT22;18679;45.190;5.722;2023-04-16T14:18:27;16.60;47.50
32173;DHT22;18679;45.190;5.722;2023-04-16T14:21:28;16.60;47.60
32173;DHT22;18679;45.190;5.722;2023-04-16T14:24:29;16.70;47.70
32173;DHT22;18679;45.190;5.722;2023-04-16T14:27:30;16.70;47.70
32173;DHT22;18679;45.190;5.722;2023-04-16T14:30:31;16.70;47.70
32173;DHT22;18679;45.190;5.722;2023-04-16T14:33:32;16.70;47.80
32173;DHT22;18679;45.190;5.722;2023-04-16T14:36:32;16.60;47.80
32173;DHT22;18679;45.190;5.722;2023-04-16T14:39:33;16.50;47.90
32173;DHT22;18679;45.190;5.722;2023-04-16T14:42:36;16.40;48.10
32173;DHT22;18679;45.190;5.722;2023-04-16T14:45:37;16.40;48.40
32173;DHT22;18679;45.190;5.722;2023-04-16T14:48:38;16.30;48.70
32173;DHT22;18679;45.190;5.722;2023-04-16T14:51:39;16.30;48.90
32173;DHT22;18679;45.190;5.722;2023-04-16T14:54:41;16.30;48.80
32173;DHT22;18679;45.190;5.722;2023-04-16T14:57:42;16.30;48.60
32173;DHT22;18679;45.190;5.722;2023-04-16T15:00:43;16.20;48.90
32173;DHT22;18679;45.190;5.722;2023-04-16T15:03:43;16.20;48.90
32173;DHT22;18679;45.190;5.722;2023-04-16T15:06:44;16.20;49.10
32173;DHT22;18679;45.190;5.722;2023-04-16T15:09:45;16.20;49.30
32173;DHT22;18679;45.190;5.722;2023-04-16T15:12:46;16.20;49.40
32173;DHT22;18679;45.190;5.722;2023-04-16T15:15:47;16.10;49.40
32173;DHT22;18679;45.190;5.722;2023-04-16T15:18:49;15.90;49.70
32173;DHT22;18679;45.190;5.722;2023-04-16T15:21:50;15.80;50.60
32173;DHT22;18679;45.190;5.722;2023-04-16T15:24:51;15.80;50.20
32173;DHT22;18679;45.190;5.722;2023-04-16T15:27:53;15.70;50.40
32173;DHT22;18679;45.190;5.722;2023-04-16T15:30:55;15.60;50.50
32173;DHT22;18679;45.190;5.722;2023-04-16T15:33:56;15.60;50.70
32173;DHT22;18679;45.190;5.722;2023-04-16T15:36:59;15.60;51.50
32173;DHT22;18679;45.190;5.722;2023-04-16T15:40:00;15.50;51.10
32173;DHT22;18679;45.190;5.722;2023-04-16T15:43:01;15.60;51.20
32173;DHT22;18679;45.190;5.722;2023-04-16T15:46:02;15.50;51.30
32173;DHT22;18679;45.190;5.722;2023-04-16T15:49:03;15.40;52.00
32173;DHT22;18679;45.190;5.722;2023-04-16T15:52:04;15.30;51.60
32173;DHT22;18679;45.190;5.722;2023-04-16T15:55:05;15.30;51.90
32173;DHT22;18679;45.190;5.722;2023-04-16T15:58:06;15.20;52.10
32173;DHT22;18679;45.190;5.722;2023-04-16T16:01:07;15.10;52.30
32173;DHT22;18679;45.190;5.722;2023-04-16T16:04:08;15.10;52.50
32173;DHT22;18679;45.190;5.722;2023-04-16T16:07:09;15.30;52.30
32173;DHT22;18679;45.190;5.722;2023-04-16T16:10:11;15.30;52.20
32173;DHT22;18679;45.190;5.722;2023-04-16T16:13:12;15.20;52.40
32173;DHT22;18679;45.190;5.722;2023-04-16T16:16:17;15.20;52.40
32173;DHT22;18679;45.190;5.722;2023-04-16T16:19:18;15.20;52.70
32173;DHT22;18679;45.190;5.722;2023-04-16T16:22:20;15.20;52.80
32173;DHT22;18679;45.190;5.722;2023-04-16T16:25:23;15.10;52.80
32173;DHT22;18679;45.190;5.722;2023-04-16T16:28:24;15.00;53.10
32173;DHT22;18679;45.190;5.722;2023-04-16T16:31:25;14.90;53.40
32173;DHT22;18679;45.190;5.722;2023-04-16T16:34:26;14.80;53.60
32173;DHT22;18679;45.190;5.722;2023-04-16T16:37:28;14.80;53.80
32173;DHT22;18679;45.190;5.722;2023-04-16T16:40:29;14.70;54.10
32173;DHT22;18679;45.190;5.722;2023-04-16T16:43:30;14.60;54.20
32173;DHT22;18679;45.190;5.722;2023-04-16T16:46:31;14.60;54.30
32173;DHT22;18679;45.190;5.722;2023-04-16T16:49:32;14.50;54.50
32173;DHT22;18679;45.190;5.722;2023-04-16T16:52:33;14.50;54.80
32173;DHT22;18679;45.190;5.722;2023-04-16T16:55:33;14.40;55.00
32173;DHT22;18679;45.190;5.722;2023-04-16T16:58:35;14.40;55.10
32173;DHT22;18679;45.190;5.722;2023-04-16T17:01:36;14.30;55.30
32173;DHT22;18679;45.190;5.722;2023-04-16T17:04:37;14.30;55.40
32173;DHT22;18679;45.190;5.722;2023-04-16T17:07:38;14.20;55.40
32173;DHT22;18679;45.190;5.722;2023-04-16T17:10:39;14.20;55.60
32173;DHT22;18679;45.190;5.722;2023-04-16T17:13:40;14.10;55.80
32173;DHT22;18679;45.190;5.722;2023-04-16T17:16:40;14.10;55.90
32173;DHT22;18679;45.190;5.722;2023-04-16T17:19:41;14.10;56.00
32173;DHT22;18679;45.190;5.722;2023-04-16T17:22:43;14.10;56.10
32173;DHT22;18679;45.190;5.722;2023-04-16T17:25:44;14.10;56.10
32173;DHT22;18679;45.190;5.722;2023-04-16T17:28:45;14.10;56.20
32173;DHT22;18679;45.190;5.722;2023-04-16T17:31:46;14.10;56.20
32173;DHT22;18679;45.190;5.722;2023-04-16T17:34:47;14.10;56.20
32173;DHT22;18679;45.190;5.722;2023-04-16T17:37:47;14.10;56.30
32173;DHT22;18679;45.190;5.722;2023-04-16T17:40:48;14.00;56.40
32173;DHT22;18679;45.190;5.722;2023-04-16T17:43:49;14.00;56.40
32173;DHT22;18679;45.190;5.722;2023-04-16T17:46:50;14.00;56.50
32173;DHT22;18679;45.190;5.722;2023-04-16T17:49:54;14.00;56.70
32173;DHT22;18679;45.190;5.722;2023-04-16T17:52:55;13.90;56.70
32173;DHT22;18679;45.190;5.722;2023-04-16T17:55:57;13.90;56.80
32173;DHT22;18679;45.190;5.722;2023-04-16T17:58:58;13.80;56.80
32173;DHT22;18679;45.190;5.722;2023-04-16T18:01:59;13.80;57.00
32173;DHT22;18679;45.190;5.722;2023-04-16T18:05:00;13.80;57.00
32173;DHT22;18679;45.190;5.722;2023-04-16T18:08:01;13.80;57.10
32173;DHT22;18679;45.190;5.722;2023-04-16T18:11:06;13.70;57.10
32173;DHT22;18679;45.190;5.722;2023-04-16T18:14:07;13.70;57.20
32173;DHT22;18679;45.190;5.722;2023-04-16T18:17:10;13.70;57.20
32173;DHT22;18679;45.190;5.722;2023-04-16T18:20:12;13.70;57.30
32173;DHT22;18679;45.190;5.722;2023-04-16T18:23:16;13.70;57.40
32173;DHT22;18679;45.190;5.722;2023-04-16T18:26:17;13.60;57.40
32173;DHT22;18679;45.190;5.722;2023-04-16T18:29:18;13.60;57.40
32173;DHT22;18679;45.190;5.722;2023-04-16T18:32:18;13.60;57.40
32173;DHT22;18679;45.190;5.722;2023-04-16T18:35:19;13.50;57.60
32173;DHT22;18679;45.190;5.722;2023-04-16T18:38:20;13.50;57.60
32173;DHT22;18679;45.190;5.722;2023-04-16T18:41:22;13.50;57.70
32173;DHT22;18679;45.190;5.722;2023-04-16T18:44:23;13.50;57.80
32173;DHT22;18679;45.190;5.722;2023-04-16T18:47:24;13.40;57.80
32173;DHT22;18679;45.190;5.722;2023-04-16T18:50:25;13.40;57.80
32173;DHT22;18679;45.190;5.722;2023-04-16T18:53:26;13.40;57.90
32173;DHT22;18679;45.190;5.722;2023-04-16T18:56:28;13.40;58.00
32173;DHT22;18679;45.190;5.722;2023-04-16T18:59:30;13.40;58.10
32173;DHT22;18679;45.190;5.722;2023-04-16T19:02:31;13.30;58.10
32173;DHT22;18679;45.190;5.722;2023-04-16T19:05:32;13.30;58.20
32173;DHT22;18679;45.190;5.722;2023-04-16T19:08:33;13.30;58.30
32173;DHT22;18679;45.190;5.722;2023-04-16T19:11:34;13.30;58.30